createdAt,value
2023-04-23T00:01:22.310Z,52.03
2023-04-23T00:03:51.461Z,52.08
2023-04-23T00:06:22.480Z,54.03
2023-04-23T00:08:54.817Z,51.70
2023-04-23T00:11:23.839Z,52.55
2023-04-23T00:13:52.921Z,51.35
2023-04-23T00:16:22.730Z,52.80
2023-04-23T00:18:51.199Z,51.63
2023-04-23T00:21:19.473Z,51.97
2023-04-23T00:23:50.847Z,51.78
2023-04-23T00:26:20.857Z,49.85
2023-04-23T00:28:49.260Z,51.17
2023-04-23T00:31:17.659Z,54.10
2023-04-23T00:33:45.974Z,50.45
2023-04-23T00:36:14.230Z,49.70
2023-04-23T00:38:42.672Z,51.45
2023-04-23T00:41:11.034Z,48.90
2023-04-23T00:43:40.835Z,51.20
2023-04-23T00:46:09.306Z,49.75
2023-04-23T00:48:38.294Z,47.83
2023-04-23T00:51:07.742Z,50.63
2023-04-23T00:53:36.158Z,48.33
2023-04-23T00:56:06.989Z,49.03
2023-04-23T00:58:35.796Z,50.22
2023-04-23T01:01:06.365Z,49.28
2023-04-23T01:03:37.952Z,49.95
2023-04-23T01:06:07.461Z,48.50
2023-04-23T01:08:36.249Z,48.97
2023-04-23T01:11:04.942Z,47.92
2023-04-23T01:13:33.751Z,47.05
2023-04-23T01:16:03.975Z,47.42
2023-04-23T01:18:32.510Z,44.08
2023-04-23T01:21:01.796Z,44.38
2023-04-23T01:23:32.096Z,41.05
2023-04-23T01:26:00.800Z,40.30
2023-04-23T01:28:29.229Z,43.70
2023-04-23T01:30:59.152Z,41.13
2023-04-23T01:33:28.018Z,39.42
2023-04-23T01:35:57.778Z,41.47
2023-04-23T01:38:32.428Z,40.97
2023-04-23T01:41:01.004Z,41.10
2023-04-23T01:43:30.365Z,40.53
2023-04-23T01:45:59.576Z,41.00
2023-04-23T01:48:28.249Z,38.92
2023-04-23T01:50:57.107Z,38.90
2023-04-23T01:53:25.475Z,39.65
2023-04-23T01:55:58.768Z,37.17
2023-04-23T01:58:27.143Z,37.90
2023-04-23T02:00:55.619Z,37.72
2023-04-23T02:03:24.123Z,36.63
2023-04-23T02:05:53.389Z,38.15
2023-04-23T02:08:21.826Z,35.55
2023-04-23T02:10:50.154Z,34.13
2023-04-23T02:13:19.839Z,32.22
2023-04-23T02:15:48.255Z,31.42
2023-04-23T02:18:16.582Z,30.80
2023-04-23T02:20:44.922Z,34.22
2023-04-23T02:23:13.340Z,33.72
2023-04-23T02:25:43.435Z,32.35
2023-04-23T02:28:13.452Z,33.30
2023-04-23T02:30:46.199Z,30.63
2023-04-23T02:33:14.783Z,31.77
2023-04-23T02:35:43.313Z,31.50
2023-04-23T02:38:12.063Z,29.77
2023-04-23T02:40:40.515Z,30.17
2023-04-23T02:43:08.928Z,30.85
2023-04-23T02:45:37.275Z,30.42
2023-04-23T02:48:07.134Z,30.02
2023-04-23T02:50:35.615Z,28.67
2023-04-23T02:53:03.963Z,29.65
2023-04-23T02:55:32.975Z,30.63
2023-04-23T02:58:04.318Z,30.73
2023-04-23T03:00:32.707Z,30.70
2023-04-23T03:03:01.217Z,30.38
2023-04-23T03:05:31.214Z,30.17
2023-04-23T03:07:59.726Z,30.08
2023-04-23T03:10:28.100Z,29.73
2023-04-23T03:12:56.514Z,30.20
2023-04-23T03:15:25.417Z,30.48
2023-04-23T03:17:53.971Z,30.15
2023-04-23T03:20:22.405Z,31.08
2023-04-23T03:22:52.095Z,29.58
2023-04-23T03:25:20.457Z,30.42
2023-04-23T03:27:48.946Z,30.58
2023-04-23T03:30:17.237Z,30.92
2023-04-23T03:32:45.785Z,32.55
2023-04-23T03:35:14.201Z,30.08
2023-04-23T03:37:42.504Z,32.35
2023-04-23T03:40:12.946Z,30.33
2023-04-23T03:42:41.383Z,31.77
2023-04-23T03:45:11.326Z,30.63
2023-04-23T03:47:39.780Z,30.95
2023-04-23T03:50:10.269Z,30.35
2023-04-23T03:52:38.584Z,30.92
2023-04-23T03:55:08.744Z,30.05
2023-04-23T03:57:38.741Z,31.50
2023-04-23T04:00:11.877Z,31.42
2023-04-23T04:02:40.920Z,30.65
2023-04-23T04:05:11.366Z,30.98
2023-04-23T04:07:40.388Z,29.58
2023-04-23T04:10:09.468Z,31.25
2023-04-23T04:12:39.852Z,31.40
2023-04-23T04:15:09.885Z,31.67
2023-04-23T04:17:38.265Z,30.05
2023-04-23T04:20:08.624Z,30.17
2023-04-23T04:22:36.960Z,31.33
2023-04-23T04:25:07.022Z,30.83
2023-04-23T04:27:35.344Z,30.08
2023-04-23T04:30:06.835Z,31.70
2023-04-23T04:32:35.787Z,30.30
2023-04-23T04:35:04.250Z,31.85
2023-04-23T04:37:32.655Z,31.88
2023-04-23T04:40:01.560Z,30.38
2023-04-23T04:42:29.959Z,31.67
2023-04-23T04:44:59.649Z,34.38
2023-04-23T04:47:29.480Z,32.47
2023-04-23T04:49:57.956Z,32.78
2023-04-23T04:52:26.376Z,32.17
2023-04-23T04:54:54.658Z,31.52
2023-04-23T04:57:23.138Z,34.17
2023-04-23T04:59:51.624Z,33.95
2023-04-23T05:02:21.696Z,31.90
2023-04-23T05:04:51.467Z,32.53
2023-04-23T05:07:19.865Z,30.38
2023-04-23T05:09:48.237Z,32.25
2023-04-23T05:12:16.596Z,31.17
2023-04-23T05:14:44.936Z,32.00
2023-04-23T05:17:13.667Z,32.65
2023-04-23T05:19:42.001Z,31.83
2023-04-23T05:22:11.746Z,30.73
2023-04-23T05:24:41.380Z,30.88
2023-04-23T05:27:09.958Z,30.48
2023-04-23T05:29:38.578Z,30.20
2023-04-23T05:32:10.360Z,30.40
2023-04-23T05:34:38.959Z,29.33
2023-04-23T05:37:07.749Z,28.73
2023-04-23T05:39:37.436Z,29.98
2023-04-23T05:42:06.986Z,29.15
2023-04-23T05:44:35.313Z,28.73
2023-04-23T05:47:03.806Z,28.02
2023-04-23T05:49:32.156Z,27.38
2023-04-23T05:52:00.749Z,29.05
2023-04-23T05:54:29.175Z,27.67
2023-04-23T05:56:58.929Z,27.90
2023-04-23T05:59:27.259Z,27.88
2023-04-23T06:01:56.041Z,25.95
2023-04-23T06:04:24.608Z,27.45
2023-04-23T06:06:53.083Z,26.27
2023-04-23T06:09:21.462Z,26.63
2023-04-23T06:11:50.679Z,26.98
2023-04-23T06:14:20.894Z,26.20
2023-04-23T06:16:51.877Z,26.27
2023-04-23T06:19:20.266Z,25.38
2023-04-23T06:21:52.233Z,25.33
2023-04-23T06:24:20.732Z,24.38
2023-04-23T06:26:54.632Z,23.70
2023-04-23T06:29:24.370Z,23.92
2023-04-23T06:31:52.954Z,22.05
2023-04-23T06:34:21.333Z,23.00
2023-04-23T06:36:49.692Z,23.70
2023-04-23T06:39:18.198Z,21.55
2023-04-23T06:41:46.663Z,21.58
2023-04-23T06:44:14.996Z,20.80
2023-04-23T06:46:44.757Z,20.08
2023-04-23T06:49:13.331Z,18.48
2023-04-23T06:51:41.632Z,18.48
2023-04-23T06:54:09.990Z,20.33
2023-04-23T06:56:38.402Z,20.13
2023-04-23T06:59:07.822Z,14.00
2023-04-23T07:01:37.065Z,13.05
2023-04-23T07:04:06.928Z,10.80
2023-04-23T07:06:35.738Z,9.07
2023-04-23T07:09:04.990Z,9.50
2023-04-23T07:11:35.012Z,9.23
2023-04-23T07:14:03.856Z,9.73
2023-04-23T07:16:34.032Z,9.13
2023-04-23T07:19:03.045Z,8.88
2023-04-23T07:21:33.134Z,7.97
2023-04-23T07:24:06.847Z,8.07
2023-04-23T07:26:37.190Z,8.88
2023-04-23T07:29:07.861Z,8.40
2023-04-23T07:31:36.361Z,8.30
2023-04-23T07:34:04.981Z,8.23
2023-04-23T07:36:34.818Z,7.43
2023-04-23T07:39:03.198Z,8.82
2023-04-23T07:41:31.604Z,8.00
2023-04-23T07:43:59.897Z,7.88
2023-04-23T07:46:28.425Z,8.43
2023-04-23T07:48:56.737Z,8.63
2023-04-23T07:51:26.826Z,8.20
2023-04-23T07:53:58.089Z,8.38
2023-04-23T07:56:26.636Z,8.75
2023-04-23T07:58:56.620Z,8.65
2023-04-23T08:01:25.191Z,8.07
2023-04-23T08:03:59.034Z,8.55
2023-04-23T08:06:30.195Z,8.40
2023-04-23T08:09:00.423Z,7.65
2023-04-23T08:11:30.289Z,7.78
2023-04-23T08:13:58.684Z,7.13
2023-04-23T08:16:27.325Z,7.65
2023-04-23T08:19:04.734Z,7.22
2023-04-23T08:21:34.602Z,7.00
2023-04-23T08:24:04.715Z,6.68
2023-04-23T08:26:33.065Z,7.53
2023-04-23T08:29:01.763Z,6.82
2023-04-23T08:31:30.201Z,7.30
2023-04-23T08:33:59.319Z,6.95
2023-04-23T08:36:27.745Z,6.63
2023-04-23T08:38:56.044Z,5.97
2023-04-23T08:41:34.859Z,5.65
2023-04-23T08:44:12.589Z,6.00
2023-04-23T08:46:46.649Z,5.53
2023-04-23T08:49:17.848Z,6.13
2023-04-23T08:51:51.176Z,6.10
2023-04-23T08:54:24.783Z,5.35
2023-04-23T08:56:59.848Z,5.72
2023-04-23T08:59:32.305Z,5.78
2023-04-23T09:02:08.008Z,6.05
2023-04-23T09:04:37.266Z,5.57
2023-04-23T09:07:08.163Z,5.85
2023-04-23T09:09:37.042Z,5.75
2023-04-23T09:12:08.271Z,6.22
2023-04-23T09:14:37.081Z,6.07
2023-04-23T09:17:06.334Z,4.97
2023-04-23T09:19:39.280Z,5.22
2023-04-23T09:22:10.129Z,5.80
2023-04-23T09:24:38.452Z,5.30
2023-04-23T09:27:08.205Z,5.38
2023-04-23T09:29:36.932Z,5.28
2023-04-23T09:32:09.571Z,4.78
2023-04-23T09:34:38.649Z,4.75
2023-04-23T09:37:11.056Z,4.53
2023-04-23T09:39:41.416Z,4.85
2023-04-23T09:42:13.519Z,4.45
2023-04-23T09:44:42.010Z,4.57
2023-04-23T09:47:14.859Z,4.40
2023-04-23T09:49:50.701Z,3.35
2023-04-23T09:52:19.330Z,3.60
2023-04-23T09:54:50.598Z,4.07
2023-04-23T09:57:20.374Z,4.35
2023-04-23T09:59:55.007Z,4.38
2023-04-23T10:02:33.971Z,3.63
2023-04-23T10:05:14.570Z,3.60
2023-04-23T10:07:50.922Z,3.40
2023-04-23T10:10:20.881Z,3.67
2023-04-23T10:12:55.274Z,4.03
2023-04-23T10:15:27.529Z,3.67
2023-04-23T10:17:56.816Z,3.33
2023-04-23T10:20:26.077Z,3.70
2023-04-23T10:22:58.060Z,3.80
2023-04-23T10:25:27.843Z,3.40
2023-04-23T10:28:00.044Z,3.60
2023-04-23T10:30:29.193Z,3.03
2023-04-23T10:33:02.540Z,2.83
2023-04-23T10:35:32.272Z,3.35
2023-04-23T10:38:00.975Z,3.17
2023-04-23T10:40:35.296Z,3.15
2023-04-23T10:43:05.052Z,2.90
2023-04-23T10:45:33.749Z,2.70
2023-04-23T10:48:02.193Z,2.38
2023-04-23T10:50:34.159Z,2.90
2023-04-23T10:53:04.305Z,3.00
2023-04-23T10:55:33.999Z,2.88
2023-04-23T10:58:07.376Z,2.72
2023-04-23T11:00:46.841Z,2.35
2023-04-23T11:03:44.092Z,2.40
2023-04-23T11:06:16.648Z,2.40
2023-04-23T11:08:55.128Z,2.55
2023-04-23T11:11:41.109Z,2.60
2023-04-23T11:14:15.450Z,2.83
2023-04-23T11:16:44.183Z,2.13
2023-04-23T11:19:13.662Z,2.13
2023-04-23T11:22:01.085Z,1.92
2023-04-23T11:24:31.441Z,2.40
2023-04-23T11:27:01.287Z,2.30
2023-04-23T11:29:31.112Z,2.35
2023-04-23T11:32:03.203Z,1.98
2023-04-23T11:34:33.608Z,2.15
2023-04-23T11:37:05.035Z,2.03
2023-04-23T11:39:33.622Z,1.73
2023-04-23T11:42:03.192Z,1.70
2023-04-23T11:44:33.052Z,1.92
2023-04-23T11:47:03.162Z,1.42
2023-04-23T11:49:31.583Z,1.80
2023-04-23T11:52:02.644Z,2.13
2023-04-23T11:54:31.012Z,2.17
2023-04-23T11:57:00.028Z,2.47
2023-04-23T11:59:28.909Z,1.70
2023-04-23T12:02:00.713Z,1.92
2023-04-23T12:04:31.282Z,1.98
2023-04-23T12:07:05.770Z,1.83
2023-04-23T12:09:39.228Z,1.90
2023-04-23T12:12:07.696Z,1.80
2023-04-23T12:14:36.062Z,1.52
2023-04-23T12:17:12.848Z,1.90
2023-04-23T12:19:44.850Z,2.17
2023-04-23T12:22:13.196Z,1.95
2023-04-23T12:24:53.553Z,1.77
2023-04-23T12:27:23.222Z,1.63
2023-04-23T12:30:01.006Z,2.40
2023-04-23T12:32:30.724Z,2.08
2023-04-23T12:34:59.995Z,1.88
2023-04-23T12:37:31.115Z,2.15
2023-04-23T12:39:59.799Z,2.35
2023-04-23T12:42:28.395Z,2.08
2023-04-23T12:44:56.777Z,2.10
2023-04-23T12:47:25.281Z,2.35
2023-04-23T12:49:56.722Z,2.63
2023-04-23T12:52:25.036Z,2.20
2023-04-23T12:54:56.488Z,2.20
2023-04-23T12:57:25.315Z,2.60
2023-04-23T12:59:54.857Z,2.15
2023-04-23T13:02:25.221Z,1.80
2023-04-23T13:05:01.044Z,1.88
2023-04-23T13:07:29.917Z,2.20
2023-04-23T13:09:59.708Z,8.82
2023-04-23T13:12:28.385Z,8.00
2023-04-23T13:14:57.554Z,4.60
2023-04-23T13:17:26.484Z,3.75
2023-04-23T13:19:57.155Z,4.18
2023-04-23T13:22:28.736Z,2.83
2023-04-23T13:24:58.061Z,2.38
2023-04-23T13:27:28.087Z,2.70
2023-04-23T13:29:56.531Z,2.50
2023-04-23T13:32:27.475Z,2.45
2023-04-23T13:35:00.567Z,2.70
2023-04-23T13:37:28.930Z,2.53
2023-04-23T13:39:57.249Z,2.70
2023-04-23T13:42:25.574Z,2.50
2023-04-23T13:44:53.992Z,2.63
2023-04-23T13:47:22.325Z,2.67
2023-04-23T13:49:51.402Z,2.60
2023-04-23T13:52:21.193Z,2.30
2023-04-23T13:54:50.871Z,2.50
2023-04-23T13:57:19.201Z,2.72
2023-04-23T13:59:49.687Z,3.28
2023-04-23T14:02:17.995Z,3.17
2023-04-23T14:04:46.638Z,3.50
2023-04-23T14:07:15.161Z,4.15
2023-04-23T14:09:46.626Z,4.03
2023-04-23T14:12:14.959Z,4.30
2023-04-23T14:14:43.437Z,4.75
2023-04-23T14:17:11.721Z,5.03
2023-04-23T14:19:40.197Z,4.55
2023-04-23T14:22:09.203Z,4.70
2023-04-23T14:24:49.230Z,4.90
2023-04-23T14:27:17.560Z,3.85
2023-04-23T14:29:53.170Z,3.88
2023-04-23T14:32:21.516Z,3.63
2023-04-23T14:34:49.923Z,4.10
2023-04-23T14:37:18.380Z,2.78
2023-04-23T14:39:54.163Z,2.83
2023-04-23T14:42:22.445Z,3.22
2023-04-23T14:44:53.409Z,2.53
2023-04-23T14:47:21.681Z,2.83
2023-04-23T14:49:50.812Z,2.63
2023-04-23T14:52:19.127Z,2.50
2023-04-23T14:54:53.481Z,3.00
2023-04-23T14:57:21.800Z,2.30
2023-04-23T14:59:50.124Z,2.30
2023-04-23T15:02:18.511Z,2.45
2023-04-23T15:04:47.658Z,2.20
2023-04-23T15:07:16.037Z,2.42
2023-04-23T15:09:44.393Z,2.30
2023-04-23T15:12:48.860Z,2.40
2023-04-23T15:15:33.578Z,2.30
2023-04-23T15:18:06.565Z,2.63
2023-04-23T15:20:34.970Z,2.63
2023-04-23T15:23:03.478Z,2.58
2023-04-23T15:25:33.229Z,2.58
2023-04-23T15:28:03.766Z,2.00
2023-04-23T15:30:32.465Z,2.35
2023-04-23T15:33:01.335Z,1.70
2023-04-23T15:35:30.028Z,2.35
2023-04-23T15:37:58.589Z,2.13
2023-04-23T15:40:29.449Z,2.10
2023-04-23T15:42:58.333Z,1.80
2023-04-23T15:45:28.242Z,1.42
2023-04-23T15:47:56.984Z,1.75
2023-04-23T15:50:27.088Z,1.40
2023-04-23T15:52:57.301Z,1.90
2023-04-23T15:55:25.619Z,1.77
2023-04-23T15:57:53.876Z,1.80
2023-04-23T16:00:22.625Z,1.55
2023-04-23T16:02:52.497Z,2.28
2023-04-23T16:05:21.161Z,1.83
2023-04-23T16:07:49.593Z,2.20
2023-04-23T16:10:17.958Z,2.13
2023-04-23T16:12:48.557Z,2.17
2023-04-23T16:15:17.009Z,2.47
2023-04-23T16:17:47.758Z,2.22
2023-04-23T16:20:17.786Z,2.35
2023-04-23T16:22:46.611Z,2.38
2023-04-23T16:25:14.966Z,2.92
2023-04-23T16:27:43.495Z,2.33
2023-04-23T16:30:12.677Z,2.40
2023-04-23T16:32:40.997Z,2.80
2023-04-23T16:35:10.582Z,2.58
2023-04-23T16:37:40.696Z,2.75
2023-04-23T16:40:10.376Z,3.33
2023-04-23T16:42:39.202Z,3.33
2023-04-23T16:45:08.593Z,3.78
2023-04-23T16:47:36.890Z,3.35
2023-04-23T16:50:05.729Z,3.10
2023-04-23T16:52:34.191Z,2.90
2023-04-23T16:55:04.600Z,3.08
2023-04-23T16:57:33.205Z,2.70
2023-04-23T17:00:01.480Z,2.63
2023-04-23T17:02:29.883Z,2.70
2023-04-23T17:04:58.317Z,3.30
2023-04-23T17:07:26.754Z,3.45
2023-04-23T17:09:55.004Z,5.22
2023-04-23T17:12:24.627Z,3.80
2023-04-23T17:14:53.498Z,4.07
2023-04-23T17:17:22.140Z,3.95
2023-04-23T17:19:52.989Z,2.55
2023-04-23T17:22:21.319Z,2.58
2023-04-23T17:24:49.885Z,2.40
2023-04-23T17:27:18.210Z,4.93
2023-04-23T17:29:48.135Z,3.17
2023-04-23T17:32:16.422Z,3.22
2023-04-23T17:34:49.481Z,3.75
2023-04-23T17:37:22.763Z,3.45
2023-04-23T17:39:51.387Z,3.10
2023-04-23T17:42:19.755Z,3.38
2023-04-23T17:44:54.056Z,5.05
2023-04-23T17:47:22.753Z,3.80
2023-04-23T17:49:51.110Z,3.20
2023-04-23T17:52:19.475Z,3.22
2023-04-23T17:54:50.357Z,3.03
2023-04-23T17:57:18.717Z,3.70
2023-04-23T17:59:48.549Z,4.20
2023-04-23T18:02:17.316Z,3.95
2023-04-23T18:04:45.710Z,4.38
2023-04-23T18:07:15.784Z,3.45
2023-04-23T18:09:44.200Z,3.40
2023-04-23T18:12:12.800Z,3.35
2023-04-23T18:14:41.086Z,3.75
2023-04-23T18:17:10.891Z,3.67
2023-04-23T18:19:39.398Z,3.70
2023-04-23T18:22:08.279Z,3.83
2023-04-23T18:24:36.667Z,6.07
2023-04-23T18:27:05.066Z,5.07
2023-04-23T18:29:33.400Z,4.65
2023-04-23T18:32:01.897Z,4.57
2023-04-23T18:34:34.070Z,4.43
2023-04-23T18:37:04.748Z,5.03
2023-04-23T18:39:33.118Z,4.93
2023-04-23T18:42:01.890Z,4.88
2023-04-23T18:44:32.393Z,4.95
2023-04-23T18:47:00.810Z,5.72
2023-04-23T18:49:47.807Z,5.82
2023-04-23T18:52:16.102Z,5.68
2023-04-23T18:54:44.455Z,5.13
2023-04-23T18:57:12.714Z,5.78
2023-04-23T18:59:41.472Z,5.10
2023-04-23T19:02:11.827Z,4.97
2023-04-23T19:04:43.298Z,5.43
2023-04-23T19:07:11.761Z,5.28
2023-04-23T19:09:40.275Z,6.25
2023-04-23T19:12:08.818Z,6.57
2023-04-23T19:14:37.667Z,6.60
2023-04-23T19:17:06.278Z,6.85
2023-04-23T19:19:35.991Z,6.00
2023-04-23T19:22:05.960Z,5.90
2023-04-23T19:24:34.499Z,5.22
2023-04-23T19:27:02.876Z,3.70
2023-04-23T19:29:31.175Z,3.65
2023-04-23T19:31:59.630Z,2.40
2023-04-23T19:34:28.275Z,2.00
2023-04-23T19:36:56.691Z,2.03
2023-04-23T19:39:26.777Z,1.60
2023-04-23T19:41:55.052Z,1.67
2023-04-23T19:44:23.308Z,1.73
2023-04-23T19:46:51.723Z,1.65
2023-04-23T19:49:20.128Z,1.83
2023-04-23T19:51:52.891Z,1.77
2023-04-23T19:54:22.868Z,1.65
2023-04-23T19:56:54.120Z,1.55
2023-04-23T19:59:24.033Z,1.50
2023-04-23T20:01:53.036Z,1.45
2023-04-23T20:04:21.455Z,1.55
2023-04-23T20:06:49.815Z,1.80
2023-04-23T20:09:23.237Z,1.73
2023-04-23T20:11:54.494Z,1.73
2023-04-23T20:14:22.820Z,2.00
2023-04-23T20:16:51.287Z,1.95
2023-04-23T20:19:19.903Z,1.88
2023-04-23T20:21:50.567Z,2.22
2023-04-23T20:24:21.296Z,2.17
2023-04-23T20:26:50.290Z,1.95
2023-04-23T20:29:19.957Z,2.33
2023-04-23T20:31:51.121Z,2.20
2023-04-23T20:34:19.467Z,2.25
2023-04-23T20:36:51.169Z,2.40
2023-04-23T20:39:24.065Z,2.20
2023-04-23T20:41:54.757Z,2.53
2023-04-23T20:44:24.893Z,2.72
2023-04-23T20:46:53.248Z,2.65
2023-04-23T20:49:22.372Z,2.10
2023-04-23T20:51:50.689Z,2.72
2023-04-23T20:54:19.041Z,2.85
2023-04-23T20:56:47.835Z,3.15
2023-04-23T20:59:16.106Z,3.40
2023-04-23T21:01:45.910Z,3.78
2023-04-23T21:04:14.300Z,4.10
2023-04-23T21:06:43.417Z,4.45
2023-04-23T21:09:12.262Z,3.70
2023-04-23T21:11:41.034Z,3.08
2023-04-23T21:14:09.573Z,3.28
2023-04-23T21:16:41.118Z,2.88
2023-04-23T21:19:10.860Z,2.80
2023-04-23T21:21:39.257Z,2.38
2023-04-23T21:24:08.020Z,2.58
2023-04-23T21:26:36.627Z,3.08
2023-04-23T21:29:05.425Z,2.63
2023-04-23T21:31:44.387Z,1.33
2023-04-23T21:34:16.610Z,1.48
2023-04-23T21:36:45.818Z,1.20
2023-04-23T21:39:14.394Z,0.70
2023-04-23T21:41:43.384Z,0.57
2023-04-23T21:44:11.652Z,1.33
2023-04-23T21:46:43.228Z,0.70
2023-04-23T21:49:13.230Z,0.82
2023-04-23T21:51:41.745Z,0.70
2023-04-23T21:54:10.093Z,0.90
2023-04-23T21:56:38.677Z,0.70
2023-04-23T21:59:07.024Z,0.95
2023-04-23T22:01:36.845Z,1.10
2023-04-23T22:04:05.723Z,1.60
2023-04-23T22:06:35.744Z,1.88
2023-04-23T22:09:04.592Z,2.60
2023-04-23T22:11:34.571Z,2.03
2023-04-23T22:14:02.965Z,1.73
2023-04-23T22:16:31.434Z,1.80
2023-04-23T22:19:00.642Z,1.80
2023-04-23T22:21:29.406Z,1.92
2023-04-23T22:23:59.037Z,2.00
2023-04-23T22:26:27.612Z,2.03
2023-04-23T22:28:56.433Z,1.98
2023-04-23T22:31:24.765Z,1.70
2023-04-23T22:33:53.188Z,1.42
2023-04-23T22:36:21.610Z,1.27
2023-04-23T22:38:49.974Z,1.30
2023-04-23T22:41:19.665Z,1.70
2023-04-23T22:43:48.163Z,1.73
2023-04-23T22:46:17.028Z,2.30
2023-04-23T22:48:47.616Z,2.33
2023-04-23T22:51:16.327Z,2.67
2023-04-23T22:53:44.700Z,3.10
2023-04-23T22:56:13.072Z,3.08
2023-04-23T22:58:45.572Z,2.80
2023-04-23T23:01:13.883Z,2.22
2023-04-23T23:03:42.537Z,2.08
2023-04-23T23:06:10.998Z,1.42
2023-04-23T23:08:39.339Z,1.52
2023-04-23T23:11:07.681Z,1.55
2023-04-23T23:13:37.229Z,1.52
2023-04-23T23:16:07.447Z,1.60
2023-04-23T23:18:35.946Z,1.75
2023-04-23T23:21:04.363Z,2.15
2023-04-23T23:23:32.673Z,1.65
2023-04-23T23:26:01.097Z,2.08
2023-04-23T23:28:29.438Z,1.80
2023-04-23T23:30:57.989Z,2.45
2023-04-23T23:33:28.093Z,2.15
2023-04-23T23:35:57.149Z,2.42
2023-04-23T23:38:25.610Z,2.45
2023-04-23T23:40:54.004Z,2.92
2023-04-23T23:43:22.292Z,2.08
2023-04-23T23:45:50.660Z,2.50
2023-04-23T23:48:19.268Z,2.20
2023-04-23T23:50:49.032Z,2.17
2023-04-23T23:53:17.364Z,2.03
2023-04-23T23:55:45.641Z,2.17
2023-04-23T23:58:13.911Z,2.10
